Time;durP1;ratioP1;P1;durP2;ratioP2;P2;SDS_P1;SDS_P2;PMS_P1;PMS_P2;Temp;Humidity;BMP_temperature;BMP_pressure;BME280_temperature;BME280_humidity;BME280_pressure;Samples;Min_cycle;Max_cycle;Signal;HPM_P1;HPM_P2
2022/05/04 00:00:20;;;;;;;14.23;6.17;;;;;;;;;;5028127;28;20937;-64
2022/05/04 00:02:47;;;;;;;12.07;6.37;;;;;;;;;;5028112;28;20430;-64
2022/05/04 00:05:14;;;;;;;17.67;6.27;;;;;;;;;;5028304;28;20445;-64
2022/05/04 00:07:41;;;;;;;12.70;6.57;;;;;;;;;;5028611;28;20546;-64
2022/05/04 00:10:25;;;;;;;14.13;6.20;;;;;;;;;;5028153;28;20422;-64
2022/05/04 00:12:52;;;;;;;17.90;6.47;;;;;;;;;;5028278;28;20824;-64
2022/05/04 00:15:19;;;;;;;13.73;6.40;;;;;;;;;;5027886;28;20794;-64
2022/05/04 00:17:45;;;;;;;13.93;6.90;;;;;;;;;;5028360;28;20461;-64
2022/05/04 00:20:12;;;;;;;13.57;6.67;;;;;;;;;;5027919;28;20430;-64
2022/05/04 00:22:39;;;;;;;12.87;6.40;;;;;;;;;;5010752;28;20496;-64
2022/05/04 00:25:06;;;;;;;14.63;7.03;;;;;;;;;;5024213;28;20467;-64
2022/05/04 00:27:34;;;;;;;15.43;6.27;;;;;;;;;;5008549;28;20435;-64
2022/05/04 00:30:01;;;;;;;12.00;6.50;;;;;;;;;;5007906;28;20497;-64
2022/05/04 00:32:27;;;;;;;9.67;5.73;;;;;;;;;;5008537;28;20459;-64
2022/05/04 00:34:54;;;;;;;10.80;5.10;;;;;;;;;;5008562;28;20494;-64
2022/05/04 00:37:21;;;;;;;11.90;5.60;;;;;;;;;;5008062;28;20538;-64
2022/05/04 00:39:47;;;;;;;9.13;5.00;;;;;;;;;;5000626;28;20524;-64
2022/05/04 00:42:15;;;;;;;12.30;4.80;;;;;;;;;;5052116;28;20433;-64
2022/05/04 00:44:43;;;;;;;8.83;4.80;;;;;;;;;;5051645;28;20498;-64
2022/05/04 00:47:09;;;;;;;8.80;4.20;;;;;;;;;;5051818;28;20524;-64
2022/05/04 00:49:36;;;;;;;9.43;4.50;;;;;;;;;;5052025;28;20509;-64
2022/05/04 00:52:03;;;;;;;8.50;4.60;;;;;;;;;;4996848;28;20742;-64
2022/05/04 00:54:30;;;;;;;8.73;4.50;;;;;;;;;;5012102;28;20549;-64
2022/05/04 00:56:57;;;;;;;9.70;4.77;;;;;;;;;;5011671;28;20806;-64
2022/05/04 00:59:24;;;;;;;10.97;4.77;;;;;;;;;;4994443;28;20475;-64
2022/05/04 01:01:51;;;;;;;7.57;4.40;;;;;;;;;;4994860;28;20811;-65
2022/05/04 01:04:18;;;;;;;9.83;5.30;;;;;;;;;;4994487;28;20514;-64
2022/05/04 01:06:46;;;;;;;11.90;5.10;;;;;;;;;;5012053;28;20482;-63
2022/05/04 01:09:13;;;;;;;8.87;5.00;;;;;;;;;;5011628;28;20442;-64
2022/05/04 01:11:40;;;;;;;10.97;5.57;;;;;;;;;;5011417;28;20443;-64
2022/05/04 01:14:08;;;;;;;11.37;5.40;;;;;;;;;;4994258;28;21338;-64
2022/05/04 01:16:36;;;;;;;9.23;5.43;;;;;;;;;;5012079;28;21163;-64
2022/05/04 01:19:02;;;;;;;9.80;4.90;;;;;;;;;;5011610;28;20437;-64
2022/05/04 01:21:29;;;;;;;11.73;5.43;;;;;;;;;;5011176;28;20437;-64
2022/05/04 01:23:56;;;;;;;8.37;4.30;;;;;;;;;;5011362;28;20494;-64
2022/05/04 01:26:23;;;;;;;9.27;4.37;;;;;;;;;;5011551;28;20501;-64
2022/05/04 01:28:50;;;;;;;10.57;4.60;;;;;;;;;;5011726;28;20481;-65
2022/05/04 01:31:21;;;;;;;9.23;4.77;;;;;;;;;;5011079;28;20431;-64
2022/05/04 01:33:47;;;;;;;8.63;4.30;;;;;;;;;;4993781;28;20568;-64
2022/05/04 01:36:14;;;;;;;10.97;4.97;;;;;;;;;;4993876;28;20854;-64
2022/05/04 01:38:41;;;;;;;11.50;5.07;;;;;;;;;;5010986;28;20526;-64
2022/05/04 01:42:02;;;;;;;14.33;5.50;;;;;;;;;;5043193;28;20443;-64
2022/05/04 01:43:54;;;;;;;9.77;4.90;;;;;;;;;;5011573;28;20481;-64
2022/05/04 01:46:21;;;;;;;10.30;5.47;;;;;;;;;;5011182;28;20550;-64
2022/05/04 01:48:49;;;;;;;11.57;5.30;;;;;;;;;;5011108;28;20926;-64
2022/05/04 01:51:15;;;;;;;10.33;4.90;;;;;;;;;;5009006;28;20455;-64
2022/05/04 01:53:42;;;;;;;9.47;4.90;;;;;;;;;;5009917;28;20570;-64
2022/05/04 01:56:09;;;;;;;9.73;4.90;;;;;;;;;;4993491;28;20860;-64
2022/05/04 01:58:36;;;;;;;9.93;4.63;;;;;;;;;;4993780;28;20985;-64
2022/05/04 02:01:02;;;;;;;11.23;5.40;;;;;;;;;;5010549;28;20416;-64
2022/05/04 02:03:29;;;;;;;8.27;5.00;;;;;;;;;;4993468;28;20443;-64
2022/05/04 02:05:56;;;;;;;9.23;4.10;;;;;;;;;;5010304;28;20427;-64
2022/05/04 02:08:24;;;;;;;10.57;5.00;;;;;;;;;;5010765;28;20438;-64
2022/05/04 02:10:51;;;;;;;14.30;4.83;;;;;;;;;;5010570;28;20802;-64
2022/05/04 02:13:17;;;;;;;11.97;4.67;;;;;;;;;;5010910;28;20545;-64
2022/05/04 02:15:47;;;;;;;13.77;5.20;;;;;;;;;;5010257;28;20450;-64
2022/05/04 02:18:13;;;;;;;9.03;4.90;;;;;;;;;;5010647;28;21008;-64
2022/05/04 02:20:40;;;;;;;11.77;4.70;;;;;;;;;;5010174;28;20435;-64
2022/05/04 02:23:07;;;;;;;10.80;4.93;;;;;;;;;;5010508;28;20954;-63
2022/05/04 02:25:33;;;;;;;8.47;4.93;;;;;;;;;;5010547;28;20481;-64
2022/05/04 02:28:00;;;;;;;7.00;4.37;;;;;;;;;;5010054;28;20474;-63
2022/05/04 02:30:27;;;;;;;10.23;4.95;;;;;;;;;;5012710;28;20792;-63
2022/05/04 02:32:54;;;;;;;10.10;4.87;;;;;;;;;;5025181;28;20532;-64
2022/05/04 02:38:18;;;;;;;9.77;4.77;;;;;;;;;;4956777;28;20540;-63
2022/05/04 02:40:45;;;;;;;12.90;5.17;;;;;;;;;;5031310;28;20462;-63
2022/05/04 02:43:12;;;;;;;9.70;4.57;;;;;;;;;;5030010;28;20434;-63
2022/05/04 02:45:39;;;;;;;8.87;4.40;;;;;;;;;;5029777;28;20460;-63
2022/05/04 02:48:06;;;;;;;9.37;4.50;;;;;;;;;;5029657;28;20430;-63
2022/05/04 02:50:33;;;;;;;9.60;4.10;;;;;;;;;;5019753;28;20455;-64
2022/05/04 02:53:00;;;;;;;9.83;4.57;;;;;;;;;;5032983;28;20473;-63
2022/05/04 02:55:27;;;;;;;10.87;5.00;;;;;;;;;;5033424;28;20438;-63
2022/05/04 02:57:54;;;;;;;11.60;5.03;;;;;;;;;;5029789;28;20489;-64
2022/05/04 03:00:20;;;;;;;8.53;4.83;;;;;;;;;;5029255;28;20444;-63
2022/05/04 03:02:47;;;;;;;13.77;5.57;;;;;;;;;;5029076;28;20540;-64
2022/05/04 03:05:16;;;;;;;7.77;4.30;;;;;;;;;;5029499;28;20984;-63
2022/05/04 03:07:43;;;;;;;11.13;5.00;;;;;;;;;;5015427;28;20549;-64
2022/05/04 03:10:09;;;;;;;8.13;4.33;;;;;;;;;;5009287;28;20490;-63
2022/05/04 03:12:36;;;;;;;7.67;4.47;;;;;;;;;;5024201;28;20532;-63
2022/05/04 03:15:04;;;;;;;8.57;4.80;;;;;;;;;;5029187;28;20465;-63
2022/05/04 03:17:30;;;;;;;8.77;4.17;;;;;;;;;;5029110;28;20435;-63
2022/05/04 03:19:58;;;;;;;10.13;4.87;;;;;;;;;;5029275;28;20441;-63
2022/05/04 03:22:25;;;;;;;10.67;4.80;;;;;;;;;;5018232;28;20466;-63
2022/05/04 03:24:52;;;;;;;12.50;5.07;;;;;;;;;;5009136;28;20817;-63
2022/05/04 03:27:19;;;;;;;10.30;4.77;;;;;;;;;;5009063;28;20867;-63
2022/05/04 03:29:45;;;;;;;11.17;4.50;;;;;;;;;;5009172;28;20510;-63
2022/05/04 03:32:12;;;;;;;11.53;5.37;;;;;;;;;;5019208;28;20434;-64
2022/05/04 03:34:39;;;;;;;11.80;4.87;;;;;;;;;;5029279;28;20473;-63
2022/05/04 03:37:06;;;;;;;10.37;4.67;;;;;;;;;;5028849;28;20441;-63
2022/05/04 03:39:32;;;;;;;9.23;4.47;;;;;;;;;;5026239;28;20533;-63
2022/05/04 03:41:59;;;;;;;10.50;5.63;;;;;;;;;;4991014;28;20426;-63
2022/05/04 03:44:26;;;;;;;13.80;5.70;;;;;;;;;;5012226;28;20998;-63
2022/05/04 03:46:53;;;;;;;9.03;4.50;;;;;;;;;;5010367;28;21127;-63
2022/05/04 03:49:20;;;;;;;9.83;4.77;;;;;;;;;;4995951;28;20954;-64
2022/05/04 03:51:47;;;;;;;10.40;5.23;;;;;;;;;;5008488;28;20451;-64
2022/05/04 03:54:14;;;;;;;11.10;5.63;;;;;;;;;;5009125;28;20529;-65
2022/05/04 03:56:41;;;;;;;11.73;5.60;;;;;;;;;;5008532;28;20493;-65
2022/05/04 03:59:08;;;;;;;10.47;5.50;;;;;;;;;;5008663;28;20470;-63
2022/05/04 04:01:35;;;;;;;8.73;4.70;;;;;;;;;;4991738;28;20446;-63
2022/05/04 04:04:03;;;;;;;10.77;5.53;;;;;;;;;;5008432;28;20441;-63
2022/05/04 04:06:32;;;;;;;9.43;5.00;;;;;;;;;;5008446;28;20432;-64
2022/05/04 04:08:59;;;;;;;11.17;5.03;;;;;;;;;;5008430;28;20505;-62
2022/05/04 04:11:26;;;;;;;13.17;5.30;;;;;;;;;;5008656;28;20419;-62
2022/05/04 04:13:53;;;;;;;12.27;5.90;;;;;;;;;;5007350;28;20478;-62
2022/05/04 04:16:20;;;;;;;10.13;5.27;;;;;;;;;;5007594;28;20517;-63
2022/05/04 04:18:47;;;;;;;10.70;5.03;;;;;;;;;;5008356;28;20484;-63
2022/05/04 04:24:00;;;;;;;10.27;5.03;;;;;;;;;;5020435;28;20472;-65
2022/05/04 04:26:27;;;;;;;10.67;4.60;;;;;;;;;;5019863;28;21153;-62
2022/05/04 04:28:54;;;;;;;9.77;4.73;;;;;;;;;;5021763;28;20955;-62
2022/05/04 04:31:21;;;;;;;8.17;4.20;;;;;;;;;;5020882;28;20794;-62
2022/05/04 04:33:48;;;;;;;8.13;3.90;;;;;;;;;;5020489;28;20482;-63
2022/05/04 04:36:15;;;;;;;8.40;4.67;;;;;;;;;;5020797;28;20557;-63
2022/05/04 04:38:43;;;;;;;7.63;3.90;;;;;;;;;;5021792;28;20461;-61
2022/05/04 04:41:10;;;;;;;6.33;3.90;;;;;;;;;;5026250;28;20745;-61
2022/05/04 04:43:54;;;;;;;7.00;4.20;;;;;;;;;;5022536;28;20171;-62
2022/05/04 04:46:21;;;;;;;7.13;4.27;;;;;;;;;;5026671;28;20187;-61
2022/05/04 04:48:48;;;;;;;7.17;3.90;;;;;;;;;;5026917;28;20211;-61
2022/05/04 04:51:15;;;;;;;6.50;4.00;;;;;;;;;;5027781;28;20877;-61
2022/05/04 04:53:42;;;;;;;6.47;4.20;;;;;;;;;;5026721;28;20231;-61
2022/05/04 04:56:09;;;;;;;7.93;4.13;;;;;;;;;;5026775;28;20191;-61
2022/05/04 04:58:36;;;;;;;8.10;4.80;;;;;;;;;;5028264;28;20184;-61
2022/05/04 05:01:02;;;;;;;15.53;6.20;;;;;;;;;;5014683;28;20274;-61
2022/05/04 05:03:29;;;;;;;12.83;5.43;;;;;;;;;;5027712;28;20192;-63
2022/05/04 05:05:56;;;;;;;10.27;4.50;;;;;;;;;;5027691;28;20183;-61
2022/05/04 05:08:23;;;;;;;10.40;4.87;;;;;;;;;;5026611;28;20546;-62
2022/05/04 05:10:50;;;;;;;11.20;4.90;;;;;;;;;;5014936;28;20188;-62
2022/05/04 05:13:17;;;;;;;10.90;4.13;;;;;;;;;;5027525;28;20187;-62
2022/05/04 05:18:30;;;;;;;9.23;3.47;;;;;;;;;;5024966;28;20188;-62
2022/05/04 05:20:57;;;;;;;7.77;3.17;;;;;;;;;;5026527;28;20282;-62
2022/05/04 05:23:24;;;;;;;3.83;1.50;;;;;;;;;;5023736;28;20195;-63
2022/05/04 05:25:51;;;;;;;4.77;1.50;;;;;;;;;;5008453;28;20234;-63
2022/05/04 05:28:21;;;;;;;5.80;1.30;;;;;;;;;;5010894;28;20207;-63
2022/05/04 05:30:48;;;;;;;5.47;1.77;;;;;;;;;;5009755;28;20536;-62
2022/05/04 05:33:15;;;;;;;5.30;1.67;;;;;;;;;;5001645;28;20267;-63
2022/05/04 05:35:42;;;;;;;2.63;1.30;;;;;;;;;;5010872;28;20208;-63
2022/05/04 05:38:10;;;;;;;5.53;1.50;;;;;;;;;;5011667;28;20663;-63
2022/05/04 05:40:37;;;;;;;3.77;1.20;;;;;;;;;;5022887;28;20863;-62
2022/05/04 05:43:04;;;;;;;4.33;1.40;;;;;;;;;;5031022;28;20249;-62
2022/05/04 05:45:31;;;;;;;2.90;1.10;;;;;;;;;;5017848;28;20282;-62
2022/05/04 05:47:57;;;;;;;4.83;1.10;;;;;;;;;;5011123;28;20187;-62
2022/05/04 05:50:41;;;;;;;4.13;1.23;;;;;;;;;;5010805;28;20183;-62
2022/05/04 05:53:08;;;;;;;2.77;1.17;;;;;;;;;;4996810;28;20690;-62
2022/05/04 05:55:35;;;;;;;4.03;1.60;;;;;;;;;;4991457;28;20200;-62
2022/05/04 05:58:01;;;;;;;3.00;1.83;;;;;;;;;;4991201;28;20651;-62
2022/05/04 06:00:28;;;;;;;4.83;1.40;;;;;;;;;;4991017;28;20231;-62
2022/05/04 06:02:55;;;;;;;4.73;1.63;;;;;;;;;;4991443;28;20261;-63
2022/05/04 06:05:22;;;;;;;4.10;1.47;;;;;;;;;;4990954;28;20267;-63
2022/05/04 06:07:49;;;;;;;4.07;1.50;;;;;;;;;;4974083;28;20197;-63
2022/05/04 06:10:15;;;;;;;3.80;1.53;;;;;;;;;;4990075;28;20197;-62
2022/05/04 06:12:43;;;;;;;4.60;1.60;;;;;;;;;;4991092;28;20193;-63
2022/05/04 06:15:10;;;;;;;4.73;1.60;;;;;;;;;;4991014;28;20215;-62
2022/05/04 06:17:37;;;;;;;9.03;2.23;;;;;;;;;;4990948;28;20185;-63
2022/05/04 06:20:04;;;;;;;4.80;1.80;;;;;;;;;;4990941;28;20299;-62
2022/05/04 06:22:31;;;;;;;6.03;1.20;;;;;;;;;;4990811;28;20208;-63
2022/05/04 06:24:58;;;;;;;5.87;1.00;;;;;;;;;;5004422;28;20236;-63
2022/05/04 06:27:25;;;;;;;2.97;1.10;;;;;;;;;;5010519;28;20194;-63
2022/05/04 06:35:23;;;;;;;2.00;1.07;;;;;;;;;;5009824;28;20224;-63
2022/05/04 06:37:50;;;;;;;4.30;0.97;;;;;;;;;;5009869;28;20215;-63
2022/05/04 06:40:17;;;;;;;5.20;1.10;;;;;;;;;;5027968;28;20186;-63
2022/05/04 06:42:44;;;;;;;3.67;1.00;;;;;;;;;;5049780;28;20654;-63
2022/05/04 06:45:10;;;;;;;6.80;1.00;;;;;;;;;;5049464;28;20218;-63
2022/05/04 06:47:37;;;;;;;2.40;0.90;;;;;;;;;;5049571;28;20194;-63
2022/05/04 06:50:04;;;;;;;3.73;1.10;;;;;;;;;;5049892;28;20213;-63
2022/05/04 06:52:31;;;;;;;3.27;0.90;;;;;;;;;;5049699;28;20288;-63
2022/05/04 06:54:58;;;;;;;1.83;0.93;;;;;;;;;;5022145;28;20212;-63
2022/05/04 06:57:25;;;;;;;6.67;1.10;;;;;;;;;;5009488;28;20272;-63
2022/05/04 06:59:52;;;;;;;4.43;1.00;;;;;;;;;;5009772;28;20198;-63
2022/05/04 07:02:20;;;;;;;6.53;1.20;;;;;;;;;;5009791;28;20184;-63
2022/05/04 07:04:47;;;;;;;6.70;1.20;;;;;;;;;;4992370;28;20251;-63
2022/05/04 07:07:13;;;;;;;4.00;1.10;;;;;;;;;;5009847;28;20669;-63
2022/05/04 07:09:40;;;;;;;6.77;1.60;;;;;;;;;;5009275;28;20311;-61
2022/05/04 07:12:07;;;;;;;6.00;1.20;;;;;;;;;;4991920;28;20219;-63
2022/05/04 07:14:34;;;;;;;4.37;1.20;;;;;;;;;;5009367;28;20311;-62
2022/05/04 07:17:01;;;;;;;3.20;1.13;;;;;;;;;;5012711;28;20829;-64
2022/05/04 07:19:28;;;;;;;4.23;1.40;;;;;;;;;;5021739;28;20261;-65
2022/05/04 07:21:55;;;;;;;6.20;1.43;;;;;;;;;;5021929;28;20682;-64
2022/05/04 07:24:22;;;;;;;4.93;1.43;;;;;;;;;;5020456;28;20234;-63
2022/05/04 07:26:49;;;;;;;2.90;1.00;;;;;;;;;;5022243;28;20287;-63
2022/05/04 07:29:16;;;;;;;5.77;1.60;;;;;;;;;;5020130;28;20196;-65
2022/05/04 07:31:43;;;;;;;5.10;1.20;;;;;;;;;;5021057;28;20204;-63
2022/05/04 07:34:10;;;;;;;3.83;1.10;;;;;;;;;;5021048;28;20253;-63
2022/05/04 07:36:37;;;;;;;5.70;1.53;;;;;;;;;;5003939;28;20211;-63
2022/05/04 07:39:04;;;;;;;2.90;1.10;;;;;;;;;;5021042;28;20700;-64
2022/05/04 07:44:17;;;;;;;7.83;1.60;;;;;;;;;;5020841;28;20210;-64
2022/05/04 07:46:45;;;;;;;5.50;1.40;;;;;;;;;;5022011;28;20378;-64
2022/05/04 07:49:12;;;;;;;3.57;1.30;;;;;;;;;;5021308;28;20199;-64
2022/05/04 07:51:38;;;;;;;3.20;1.50;;;;;;;;;;5020702;28;20230;-64
2022/05/04 07:54:05;;;;;;;5.73;1.60;;;;;;;;;;5020071;28;20202;-65
2022/05/04 07:56:32;;;;;;;6.80;1.40;;;;;;;;;;5020273;28;20992;-63
2022/05/04 07:59:00;;;;;;;7.53;1.60;;;;;;;;;;5020483;28;20194;-63
2022/05/04 08:04:16;;;;;;;5.53;1.30;;;;;;;;;;5021039;28;20195;-64
2022/05/04 08:06:43;;;;;;;4.17;1.23;;;;;;;;;;5021439;28;20278;-63
2022/05/04 08:09:10;;;;;;;4.60;1.40;;;;;;;;;;5021370;28;20218;-65
2022/05/04 08:11:37;;;;;;;4.80;1.30;;;;;;;;;;5020750;28;20203;-65
2022/05/04 08:14:05;;;;;;;6.03;1.70;;;;;;;;;;5021312;28;20225;-64
2022/05/04 08:16:32;;;;;;;4.60;1.50;;;;;;;;;;5018903;28;20216;-65
2022/05/04 08:19:00;;;;;;;4.70;1.60;;;;;;;;;;5021832;28;20736;-66
2022/05/04 08:21:44;;;;;;;4.80;1.53;;;;;;;;;;5021540;28;20179;-64
2022/05/04 08:24:11;;;;;;;3.30;1.20;;;;;;;;;;5026119;28;20322;-62
2022/05/04 08:26:56;;;;;;;5.33;1.33;;;;;;;;;;5028146;28;20228;-63
2022/05/04 08:29:23;;;;;;;5.03;1.33;;;;;;;;;;5025402;28;20204;-64
2022/05/04 08:32:07;;;;;;;4.23;1.33;;;;;;;;;;5034888;28;20179;-63
2022/05/04 08:34:34;;;;;;;4.30;1.53;;;;;;;;;;5045219;28;20210;-63
2022/05/04 08:37:00;;;;;;;5.07;1.60;;;;;;;;;;5014083;28;20192;-63
2022/05/04 08:39:27;;;;;;;3.50;1.30;;;;;;;;;;5016957;28;20719;-63
2022/05/04 08:41:54;;;;;;;3.93;1.40;;;;;;;;;;5047849;28;20190;-63
2022/05/04 08:44:21;;;;;;;6.33;1.43;;;;;;;;;;5010242;28;20588;-65
2022/05/04 08:46:48;;;;;;;3.93;1.20;;;;;;;;;;5021793;28;20868;-65
2022/05/04 08:49:16;;;;;;;3.33;1.37;;;;;;;;;;5020794;28;20239;-64
2022/05/04 08:51:43;;;;;;;2.83;1.40;;;;;;;;;;5028648;28;20223;-65
2022/05/04 08:54:10;;;;;;;5.83;1.20;;;;;;;;;;5021535;28;20213;-67
2022/05/04 08:56:37;;;;;;;4.40;1.37;;;;;;;;;;5021235;28;20988;-63
2022/05/04 08:59:04;;;;;;;4.93;1.00;;;;;;;;;;5021108;28;20262;-64
2022/05/04 09:01:33;;;;;;;3.63;1.20;;;;;;;;;;5021994;28;20254;-64
2022/05/04 09:04:00;;;;;;;3.17;1.50;;;;;;;;;;5024256;28;20882;-64
2022/05/04 09:06:31;;;;;;;3.33;1.17;;;;;;;;;;5025051;28;20207;-63
2022/05/04 09:09:14;;;;;;;5.43;1.20;;;;;;;;;;5025439;28;20226;-65
2022/05/04 09:11:41;;;;;;;3.23;1.27;;;;;;;;;;5029272;28;21032;-65
2022/05/04 09:14:12;;;;;;;2.93;1.20;;;;;;;;;;5035801;28;20204;-64
2022/05/04 09:16:57;;;;;;;2.93;1.17;;;;;;;;;;5024906;28;20200;-66
2022/05/04 09:19:25;;;;;;;3.80;1.33;;;;;;;;;;5023552;28;20191;-65
2022/05/04 09:21:52;;;;;;;2.53;1.20;;;;;;;;;;5023139;28;20211;-67
2022/05/04 09:24:26;;;;;;;3.77;1.50;;;;;;;;;;5024220;28;20243;-65
2022/05/04 09:26:54;;;;;;;3.33;1.20;;;;;;;;;;5023330;28;20203;-65
2022/05/04 09:29:22;;;;;;;2.13;1.30;;;;;;;;;;5024319;28;20230;-65
2022/05/04 09:31:50;;;;;;;3.73;1.50;;;;;;;;;;5004806;28;20241;-66
2022/05/04 09:34:35;;;;;;;3.70;1.00;;;;;;;;;;5023694;28;20198;-64
2022/05/04 09:45:38;;;;;;;1.80;0.80;;;;;;;;;;5025942;28;20195;-64
2022/05/04 09:48:05;;;;;;;3.63;1.20;;;;;;;;;;5023111;28;20192;-65
2022/05/04 09:50:39;;;;;;;2.80;1.00;;;;;;;;;;5023546;28;20239;-66
2022/05/04 09:53:06;;;;;;;5.07;1.20;;;;;;;;;;5022368;28;20203;-64
2022/05/04 09:55:33;;;;;;;1.83;0.90;;;;;;;;;;5024594;28;20599;-65
2022/05/04 09:58:00;;;;;;;4.37;1.20;;;;;;;;;;5022700;28;20195;-64
2022/05/04 10:00:27;;;;;;;1.93;1.17;;;;;;;;;;5023383;28;20194;-65
2022/05/04 10:02:54;;;;;;;3.27;1.03;;;;;;;;;;5021828;28;20289;-66
2022/05/04 10:05:22;;;;;;;5.10;1.60;;;;;;;;;;5022424;28;20202;-63
2022/05/04 10:07:50;;;;;;;3.23;1.10;;;;;;;;;;5022943;28;20271;-64
2022/05/04 10:10:18;;;;;;;2.87;1.20;;;;;;;;;;5020882;28;20203;-63
2022/05/04 10:12:45;;;;;;;3.87;1.07;;;;;;;;;;5021211;28;20331;-65
2022/05/04 10:15:13;;;;;;;3.37;1.10;;;;;;;;;;5022947;28;20219;-65
2022/05/04 10:17:51;;;;;;;3.13;1.40;;;;;;;;;;5004743;28;20214;-65
2022/05/04 10:20:39;;;;;;;1.83;1.10;;;;;;;;;;4993457;28;20290;-65
2022/05/04 10:23:14;;;;;;;1.97;1.00;;;;;;;;;;5005471;28;20203;-66
2022/05/04 10:25:42;;;;;;;4.20;1.47;;;;;;;;;;5023235;28;20222;-64
2022/05/04 10:28:10;;;;;;;2.00;0.83;;;;;;;;;;5024363;28;20682;-64
2022/05/04 10:30:54;;;;;;;1.60;0.90;;;;;;;;;;5023180;28;20199;-63
2022/05/04 10:33:25;;;;;;;2.80;1.07;;;;;;;;;;5011515;28;20207;-63
2022/05/04 10:35:52;;;;;;;4.30;1.33;;;;;;;;;;5023658;28;20226;-63
2022/05/04 10:38:29;;;;;;;5.23;1.60;;;;;;;;;;5024412;28;20206;-63
2022/05/04 10:41:00;;;;;;;2.90;1.30;;;;;;;;;;5023701;28;20241;-64
2022/05/04 10:43:36;;;;;;;2.67;1.30;;;;;;;;;;5021788;28;20273;-64
2022/05/04 10:46:06;;;;;;;2.63;1.17;;;;;;;;;;5023460;28;20203;-65
2022/05/04 10:48:33;;;;;;;3.63;1.20;;;;;;;;;;5022169;28;20283;-64
2022/05/04 10:51:10;;;;;;;3.03;1.20;;;;;;;;;;5022113;28;20947;-62
2022/05/04 10:53:38;;;;;;;5.60;1.87;;;;;;;;;;5022264;28;20219;-63
2022/05/04 10:56:06;;;;;;;3.87;1.70;;;;;;;;;;5017470;28;20297;-64
2022/05/04 10:58:39;;;;;;;2.07;1.30;;;;;;;;;;5027979;28;20194;-62
2022/05/04 11:01:13;;;;;;;5.10;1.60;;;;;;;;;;5030334;28;20203;-63
2022/05/04 11:03:59;;;;;;;3.03;1.20;;;;;;;;;;5028011;28;20248;-63
2022/05/04 11:06:32;;;;;;;1.93;1.20;;;;;;;;;;5022277;28;20193;-64
2022/05/04 11:09:04;;;;;;;2.43;1.10;;;;;;;;;;5020893;28;20195;-63
2022/05/04 11:11:49;;;;;;;4.03;1.03;;;;;;;;;;5022240;28;20184;-64
2022/05/04 11:14:17;;;;;;;2.70;1.40;;;;;;;;;;5022206;28;20187;-65
2022/05/04 11:16:44;;;;;;;3.37;1.20;;;;;;;;;;5021989;28;20223;-64
2022/05/04 11:19:11;;;;;;;1.77;0.90;;;;;;;;;;5021787;28;20207;-64
2022/05/04 11:21:38;;;;;;;2.87;0.90;;;;;;;;;;5021420;28;20203;-64
2022/05/04 11:24:06;;;;;;;2.23;0.90;;;;;;;;;;5021668;28;20289;-64
2022/05/04 11:26:36;;;;;;;3.73;1.00;;;;;;;;;;5020830;28;20191;-64
2022/05/04 11:29:10;;;;;;;2.37;0.80;;;;;;;;;;5021841;28;20199;-65
2022/05/04 11:31:37;;;;;;;1.43;0.83;;;;;;;;;;5021275;28;20188;-64
2022/05/04 11:34:04;;;;;;;2.10;0.70;;;;;;;;;;5021182;28;20208;-64
2022/05/04 11:36:31;;;;;;;1.80;0.87;;;;;;;;;;5020717;28;20242;-65
2022/05/04 11:38:58;;;;;;;2.70;0.90;;;;;;;;;;5020289;28;20227;-65
2022/05/04 11:41:24;;;;;;;2.60;1.20;;;;;;;;;;5020251;28;20249;-65
2022/05/04 11:43:51;;;;;;;1.83;1.00;;;;;;;;;;5019906;28;21346;-64
2022/05/04 11:46:19;;;;;;;2.33;0.90;;;;;;;;;;5020740;28;20269;-66
2022/05/04 11:48:47;;;;;;;2.47;1.07;;;;;;;;;;5019393;28;20299;-64
2022/05/04 11:51:31;;;;;;;2.23;1.13;;;;;;;;;;5009283;28;21129;-63
2022/05/04 11:53:58;;;;;;;4.10;1.00;;;;;;;;;;5020613;28;20197;-65
2022/05/04 11:56:25;;;;;;;2.13;0.90;;;;;;;;;;5020513;28;20211;-64
2022/05/04 11:58:52;;;;;;;5.03;1.10;;;;;;;;;;5019700;28;20195;-65
2022/05/04 12:01:19;;;;;;;3.27;1.10;;;;;;;;;;5004754;28;20951;-63
2022/05/04 12:03:46;;;;;;;3.07;0.90;;;;;;;;;;5028404;28;20293;-63
2022/05/04 12:06:12;;;;;;;2.17;1.00;;;;;;;;;;5027026;28;20200;-63
2022/05/04 12:08:40;;;;;;;3.93;1.13;;;;;;;;;;5028443;28;20199;-63
2022/05/04 12:11:07;;;;;;;4.87;1.27;;;;;;;;;;5028616;28;20199;-63
2022/05/04 12:13:38;;;;;;;4.67;1.07;;;;;;;;;;5028381;28;20183;-63
2022/05/04 12:16:05;;;;;;;2.37;1.30;;;;;;;;;;5028121;28;20207;-64
2022/05/04 12:18:33;;;;;;;4.20;1.03;;;;;;;;;;5027994;28;20191;-63
2022/05/04 12:21:06;;;;;;;2.50;1.00;;;;;;;;;;5027937;28;20195;-61
2022/05/04 12:23:33;;;;;;;9.47;1.50;;;;;;;;;;5028001;28;20187;-61
2022/05/04 12:26:01;;;;;;;3.40;1.50;;;;;;;;;;5028212;28;21098;-63
2022/05/04 12:28:28;;;;;;;8.83;1.57;;;;;;;;;;5027911;28;20666;-64
2022/05/04 12:33:40;;;;;;;3.23;1.20;;;;;;;;;;5020948;28;20917;-65
2022/05/04 12:36:08;;;;;;;4.50;1.13;;;;;;;;;;5018885;28;20353;-65
2022/05/04 12:38:35;;;;;;;6.73;1.50;;;;;;;;;;5020649;28;20579;-64
2022/05/04 12:41:03;;;;;;;2.13;1.10;;;;;;;;;;5020069;28;20211;-62
2022/05/04 12:43:33;;;;;;;3.67;1.30;;;;;;;;;;5020437;28;21030;-62
2022/05/04 12:46:00;;;;;;;2.90;1.20;;;;;;;;;;5020573;28;20221;-63
2022/05/04 12:48:29;;;;;;;5.27;1.30;;;;;;;;;;5019862;28;20289;-62
2022/05/04 12:50:56;;;;;;;3.23;1.17;;;;;;;;;;5020981;28;20194;-63
2022/05/04 12:53:23;;;;;;;2.70;1.07;;;;;;;;;;5019889;28;20638;-64
2022/05/04 12:58:36;;;;;;;2.37;1.00;;;;;;;;;;5021008;28;20194;-65
2022/05/04 13:01:21;;;;;;;3.20;1.03;;;;;;;;;;5021632;28;20179;-63
2022/05/04 13:03:50;;;;;;;2.77;0.90;;;;;;;;;;5022351;28;20203;-64
2022/05/04 13:06:17;;;;;;;1.60;1.00;;;;;;;;;;5021191;28;20688;-63
2022/05/04 13:08:45;;;;;;;2.73;1.13;;;;;;;;;;5021029;28;20610;-65
2022/05/04 13:11:12;;;;;;;4.20;1.00;;;;;;;;;;5021818;28;20270;-63
2022/05/04 13:13:39;;;;;;;2.00;0.80;;;;;;;;;;5029407;28;20851;-65
2022/05/04 13:16:06;;;;;;;8.30;1.40;;;;;;;;;;5021140;28;20234;-63
2022/05/04 13:18:33;;;;;;;3.97;1.10;;;;;;;;;;5020590;28;20299;-66
2022/05/04 13:20:59;;;;;;;2.47;0.87;;;;;;;;;;5019331;28;20196;-65
2022/05/04 13:23:26;;;;;;;1.70;0.70;;;;;;;;;;5019995;28;20199;-65
2022/05/04 13:25:53;;;;;;;3.47;0.80;;;;;;;;;;5014828;28;20195;-64
2022/05/04 13:28:20;;;;;;;2.43;1.00;;;;;;;;;;5018821;28;20581;-64
2022/05/04 13:30:47;;;;;;;5.70;1.40;;;;;;;;;;5022898;28;20191;-64
2022/05/04 13:33:15;;;;;;;6.93;0.93;;;;;;;;;;5026123;28;20204;-65
2022/05/04 13:35:41;;;;;;;4.13;1.67;;;;;;;;;;5018295;28;20211;-64
2022/05/04 13:38:08;;;;;;;2.00;1.00;;;;;;;;;;5021754;28;20187;-65
2022/05/04 13:40:36;;;;;;;2.07;0.70;;;;;;;;;;5023324;28;20200;-62
2022/05/04 13:43:04;;;;;;;2.13;0.73;;;;;;;;;;5023340;28;20562;-63
2022/05/04 13:45:31;;;;;;;2.13;1.00;;;;;;;;;;5022062;28;20250;-63
2022/05/04 13:47:58;;;;;;;4.47;0.90;;;;;;;;;;5021981;28;20269;-64
2022/05/04 13:53:16;;;;;;;3.17;1.00;;;;;;;;;;5023269;28;20210;-65
2022/05/04 13:55:44;;;;;;;2.67;0.80;;;;;;;;;;5024148;28;20274;-64
2022/05/04 13:58:11;;;;;;;2.40;0.80;;;;;;;;;;5022430;28;20219;-64
2022/05/04 14:00:39;;;;;;;3.37;1.20;;;;;;;;;;5023283;28;20218;-63
2022/05/04 14:03:06;;;;;;;2.87;1.00;;;;;;;;;;5024793;28;20677;-63
2022/05/04 14:05:33;;;;;;;4.40;0.80;;;;;;;;;;5023458;28;20282;-64
2022/05/04 14:08:00;;;;;;;1.67;0.80;;;;;;;;;;5004848;28;20187;-63
2022/05/04 14:10:28;;;;;;;2.63;0.90;;;;;;;;;;5024199;28;21047;-64
2022/05/04 14:12:57;;;;;;;1.40;0.87;;;;;;;;;;5023840;28;20574;-65
2022/05/04 14:15:24;;;;;;;5.30;1.00;;;;;;;;;;5006913;28;20222;-65
2022/05/04 14:17:51;;;;;;;3.43;1.10;;;;;;;;;;5021586;28;20219;-64
2022/05/04 14:20:18;;;;;;;3.13;1.10;;;;;;;;;;5024137;28;20539;-64
2022/05/04 14:22:45;;;;;;;3.07;1.40;;;;;;;;;;5024617;28;20290;-64
2022/05/04 14:25:13;;;;;;;2.40;0.80;;;;;;;;;;5039875;28;20223;-63
2022/05/04 14:27:40;;;;;;;3.63;0.80;;;;;;;;;;5039166;28;21007;-63
2022/05/04 14:30:10;;;;;;;5.90;0.80;;;;;;;;;;5042880;28;20187;-64
2022/05/04 14:32:39;;;;;;;4.40;1.20;;;;;;;;;;5023502;28;20223;-65
2022/05/04 14:35:06;;;;;;;3.60;1.00;;;;;;;;;;5040953;28;21077;-64
2022/05/04 14:37:33;;;;;;;2.40;1.00;;;;;;;;;;5040824;28;20219;-64
2022/05/04 14:40:00;;;;;;;2.13;1.00;;;;;;;;;;5039727;28;20199;-64
2022/05/04 14:42:28;;;;;;;4.07;0.83;;;;;;;;;;5033093;28;20614;-66
2022/05/04 14:44:55;;;;;;;5.03;2.00;;;;;;;;;;5028021;28;20192;-65
2022/05/04 14:47:22;;;;;;;5.47;2.60;;;;;;;;;;5038461;28;20248;-63
2022/05/04 14:49:49;;;;;;;8.83;4.73;;;;;;;;;;5040399;28;20230;-64
2022/05/04 14:52:15;;;;;;;2.13;0.90;;;;;;;;;;5034738;28;20211;-64
2022/05/04 14:54:42;;;;;;;1.93;0.80;;;;;;;;;;5037280;28;20206;-64
2022/05/04 14:57:09;;;;;;;6.17;3.00;;;;;;;;;;5037739;28;20246;-64
2022/05/04 14:59:37;;;;;;;2.43;1.80;;;;;;;;;;5034885;28;20983;-65
2022/05/04 15:02:04;;;;;;;2.73;1.33;;;;;;;;;;5039925;28;20214;-63
2022/05/04 15:07:17;;;;;;;2.20;0.80;;;;;;;;;;4995810;28;20198;-64
2022/05/04 15:09:47;;;;;;;3.13;0.90;;;;;;;;;;5038944;28;20195;-64
2022/05/04 15:12:14;;;;;;;2.97;0.80;;;;;;;;;;5039947;28;20876;-65
2022/05/04 15:14:42;;;;;;;1.27;0.77;;;;;;;;;;5038347;28;20723;-65
2022/05/04 15:17:10;;;;;;;3.20;0.87;;;;;;;;;;5000923;28;20274;-64
2022/05/04 15:19:38;;;;;;;7.30;1.10;;;;;;;;;;5027988;28;20192;-64
2022/05/04 15:22:07;;;;;;;1.53;0.70;;;;;;;;;;5011029;28;20188;-64
2022/05/04 15:24:34;;;;;;;1.97;0.70;;;;;;;;;;5021874;28;20281;-63